Nearby METAR Reports

METAR is the scheduled surface weather observation taken hourly at civil and military airport locations.

METAR is an acronym from the French language and roughly translates as Aviation Routine Weather Report.

 

EGPL - Benbecula Island, United Kingdom
Distance from station: WNW 41mi, 66km
Updated: 23/05/2018 09:50
Few Clouds
Few Clouds
 Wind from SW
Wind: SW 12 mph , 19 km/h
Temperature: 13°C
Dew Point: 10°C
Humidity: 82%
Barometer: 1026 hPa
Clouds: Few Clouds
Visibility: 6 miles , 10 km
Cloud details: Few Clouds 457 m
2018/05/23 08:50 EGPL 230850Z 23010KT 9999 FEW015 13/10 Q1026
EGPU - Tiree Island, United Kingdom
Distance from station: SSW 56mi, 90km
Updated: 23/05/2018 09:50
Few Clouds
Few Clouds
 Wind from SSE
Wind: SSE 16 mph , 26 km/h
Temperature: 11°C
Dew Point: 8°C
Humidity: 82%
Barometer: 1026 hPa
Clouds: Few Clouds
Visibility: 6 miles , 10 km
Cloud details: Few Clouds 1219 m
2018/05/23 08:50 EGPU 230850Z 15014KT 9999 FEW040 11/08 Q1026
 
EGEO - Oban Airport, United Kingdom
Distance from station: SE 65mi, 105km
Updated: 23/05/2018 09:50
Few Clouds
Few Clouds
 Wind from ESE
Wind: ESE 8 mph , 13 km/h
Temperature: 14°C
Dew Point: 8°C
Humidity: 67%
Barometer: 1027 hPa
Clouds: Few Clouds
Visibility: 6 miles , 10 km
Cloud details: Few Clouds 732 m
2018/05/23 08:50 EGEO 230850Z 12007KT 9999 FEW024 14/08 Q1027
EGPO - Stornoway, United Kingdom
Distance from station: 0 66mi, 106km
Updated: 23/05/2018 09:50
Partly cloudy
Partly cloudy
 Wind from SSE
Wind: SSE 10 mph , 17 km/h
Temperature: 11°C
Dew Point: 8°C
Humidity: 82%
Barometer: 1027 hPa
Clouds: Partly cloudy
Visibility: 6 miles , 10 km
Cloud details: Few Clouds 610 m
Partly cloudy 1036 m
2018/05/23 08:50 EGPO 230850Z 16009KT 9999 FEW020 SCT034 11/08 Q1027
 
EGPE - Inverness/Dalcro, United Kingdom
Distance from station: ENE 88mi, 141km
Updated: 23/05/2018 09:50
Few Clouds
Few Clouds
 Wind from varies
Wind: varies 2 mph , 4 km/h
Temperature: 12°C
Dew Point: 8°C
Humidity: 77%
Barometer: 1028 hPa
Clouds: Few Clouds
Visibility: 6 miles , 10 km
Cloud details: Few Clouds 610 m
2018/05/23 08:50 EGPE 230850Z VRB02KT 9999 FEW020 12/08 Q1028
EGQA - Tain Range (saws, United Kingdom
Distance from station: ENE 97mi, 156km
Updated: 22/05/2018 18:50
NOT Current
Mostly cloudy
Mostly cloudy
 Wind from ENE
Wind: ENE 12 mph , 19 km/h
Clouds: Mostly cloudy
Visibility: 6 miles , 10 km
Cloud details: Few Clouds 305 m
Partly cloudy 914 m
Mostly cloudy 5486 m
2018/05/22 17:50 EGQA 221750Z 07010KT 9999 FEW010 SCT030 BKN180 14/// Q1027 BLU
 
EGQK - Kinloss Raf, United Kingdom
Distance from station: ENE 107mi, 171km
Updated: 23/05/2018 09:50
Overcast
Overcast
 Wind from S
Wind: S 3 mph , 6 km/h
Temperature: 11°C
Dew Point: 7°C
Humidity: 77%
Barometer: 1028 hPa
Clouds: Overcast
Visibility: 6 miles , 10 km
Cloud details: Overcast 427 m
2018/05/23 08:50 EGQK 230850Z AUTO 17003KT 9999 OVC014/// 11/07 Q1028
EGPI - Islay/Port Ellen, United Kingdom
Distance from station: S 110mi, 177km
Updated: 23/05/2018 09:50
Clear
Clear
 Wind from E
Wind: E 14 mph , 22 km/h
Temperature: 14°C
Dew Point: 9°C
Humidity: 72%
Barometer: 1026 hPa
Summary: Clear
Visibility: greater than 7 miles , 10 km
2018/05/23 08:50 EGPI 230850Z 08012KT 040V120 CAVOK 14/09 Q1026
 
EGQS - Lossiemouth Raf, United Kingdom
Distance from station: ENE 117mi, 188km
Updated: 01/01/1970 01:00
NOT Current
unable to load EGQS data RC=404 Not Found
unable to load EGQS data RC=404 Not Found
 
EGPF - Glasgow Airport, United Kingdom
Distance from station: SE 121mi, 195km
Updated: 23/05/2018 09:50
Overcast
Overcast
 Wind from E
Wind: E 10 mph , 17 km/h
Temperature: 10°C
Wind Chill: 8°C
Dew Point: 7°C
Humidity: 82%
Barometer: 1028 hPa
Clouds: Overcast
Visibility: 6 miles , 10 km
Cloud details: Overcast 457 m
2018/05/23 08:50 EGPF 230850Z AUTO 08009KT 9999 OVC015 10/07 Q1028
 
EGEC - Campbeltown, United Kingdom
Distance from station: SSE 129mi, 207km
Updated: 23/05/2018 09:50
Few Clouds
Few Clouds
 Wind from E
Wind: E 8 mph , 13 km/h
Temperature: 13°C
Dew Point: 9°C
Humidity: 77%
Barometer: 1027 hPa
Clouds: Few Clouds
Visibility: 6 miles , 10 km
Cloud details: Few Clouds 518 m
2018/05/23 08:50 EGEC 230850Z 09007KT 9999 FEW017 13/09 Q1027
EGPN - Dundee/Riverside, United Kingdom
Distance from station: ESE 137mi, 221km
Updated: 23/05/2018 09:50
Mostly cloudy
Mostly cloudy
 Wind from ESE
Wind: ESE 5 mph , 7 km/h
Temperature: 11°C
Dew Point: 7°C
Humidity: 77%
Barometer: 1029 hPa
Clouds: Mostly cloudy
Visibility: 6 miles , 10 km
Cloud details: Mostly cloudy 549 m
2018/05/23 08:50 EGPN 230850Z 12004KT 9999 BKN018 11/07 Q1029
 
EGPK - Prestwick(Civ/Na, United Kingdom
Distance from station: SSE 139mi, 224km
Updated: 23/05/2018 09:50
Few Clouds
Few Clouds
 Wind from NNE
Wind: NNE 8 mph , 13 km/h
Temperature: 13°C
Dew Point: 8°C
Humidity: 72%
Barometer: 1028 hPa
Clouds: Few Clouds
Visibility: 6 miles , 10 km
Cloud details: Few Clouds 457 m
2018/05/23 08:50 EGPK 230850Z 03007KT 350V060 9999 FEW015 13/08 Q1028
EGQL - Leuchars Raf, United Kingdom
Distance from station: ESE 145mi, 233km
Updated: 23/05/2018 09:50
Overcast
Overcast
 Wind from ESE
Wind: ESE 8 mph , 13 km/h
Temperature: 10°C
Wind Chill: 8°C
Dew Point: 6°C
Humidity: 76%
Barometer: 1029 hPa
Clouds: Overcast
Visibility: 6 miles , 10 km
Cloud details: Overcast 427 m
2018/05/23 08:50 EGQL 230850Z 12007KT 9999 OVC014 10/06 Q1029 GRN
 
EGPH - Edinburgh Airpor, United Kingdom
Distance from station: SE 145mi, 234km
Updated: 23/05/2018 09:50
Mostly cloudy
Mostly cloudy
 Wind from NE
Wind: NE 10 mph , 17 km/h
Temperature: 9°C
Wind Chill: 7°C
Dew Point: 7°C
Humidity: 87%
Barometer: 1028 hPa
Clouds: Mostly cloudy
Visibility: 6 miles , 10 km
Cloud details: Mostly cloudy 427 m
2018/05/23 08:50 EGPH 230850Z 05009KT 9999 BKN014 09/07 Q1028
EGPC - Wick, United Kingdom
Distance from station: NE 146mi, 234km
Updated: 23/05/2018 09:50
Mostly cloudy
Mostly cloudy
 Wind from S
Wind: S 6 mph , 9 km/h
Temperature: 9°C
Wind Chill: 7°C
Dew Point: 6°C
Humidity: 82%
Barometer: 1028 hPa
Clouds: Mostly cloudy
Visibility: 6 miles , 10 km
Cloud details: Mostly cloudy 488 m
2018/05/23 08:50 EGPC 230850Z 17005KT 9999 BKN016 09/06 Q1028

-

free counters
QR Code Twitter Scottish Weather Network UK Weather Network
Argyll House B & B

Argyll House B & B is situated in North West Skye and is the perfect base to see all that the Isle of Skye has to offer.
We are now full for 2018 - Bookings been taken for 2019.